Time;durP1;ratioP1;P1;durP2;ratioP2;P2;SDS_P1;SDS_P2;PMS_P1;PMS_P2;Temp;Humidity;BMP_temperature;BMP_pressure;BME280_temperature;BME280_humidity;BME280_pressure;Samples;Min_cycle;Max_cycle;Signal;HPM_P1;HPM_P2
2022/04/22 00:01:03;;;;;;;12.47;4.67;;;;;;;8.13;80.86;95068.06;4996369;28;20694;-68
2022/04/22 00:03:30;;;;;;;11.20;5.13;;;;;;;8.21;80.40;95063.53;4995925;28;20199;-67
2022/04/22 00:05:56;;;;;;;9.63;4.80;;;;;;;8.07;80.65;95055.69;4996710;28;20222;-67
2022/04/22 00:08:24;;;;;;;13.60;4.97;;;;;;;8.24;81.11;95060.50;4996333;28;20233;-67
2022/04/22 00:13:34;;;;;;;11.13;5.27;;;;;;;7.92;82.04;95052.38;4995740;28;20548;-67
2022/04/22 00:16:01;;;;;;;11.13;5.20;;;;;;;8.07;81.63;95056.53;4996397;28;20206;-66
2022/04/22 00:18:27;;;;;;;9.37;4.87;;;;;;;8.23;81.07;95058.88;4995827;28;20234;-66
2022/04/22 00:20:54;;;;;;;9.37;5.20;;;;;;;8.23;81.32;95058.09;4996382;28;20235;-67
2022/04/22 00:23:20;;;;;;;10.57;5.10;;;;;;;8.17;81.73;95048.34;4995751;28;20234;-67
2022/04/22 00:25:48;;;;;;;9.13;4.93;;;;;;;8.30;81.65;95048.44;4996114;28;20306;-67
2022/04/22 00:28:15;;;;;;;10.67;5.30;;;;;;;8.16;80.32;95046.72;4995962;28;20253;-67
2022/04/22 00:30:41;;;;;;;13.23;5.23;;;;;;;8.02;81.44;95037.13;4995854;28;20281;-67
2022/04/22 00:33:08;;;;;;;10.57;5.10;;;;;;;7.93;81.43;95036.44;4995384;28;20292;-67
2022/04/22 00:35:34;;;;;;;10.33;5.50;;;;;;;7.93;81.71;95035.63;4995517;28;20214;-68
2022/04/22 00:38:01;;;;;;;10.77;5.27;;;;;;;7.63;82.60;95034.16;4995642;28;21132;-67
2022/04/22 00:40:27;;;;;;;11.17;4.93;;;;;;;7.56;81.98;95022.81;4995743;28;21111;-66
2022/04/22 00:42:55;;;;;;;10.33;4.87;;;;;;;7.81;81.18;95024.03;4994834;28;20198;-67
2022/04/22 00:45:22;;;;;;;9.57;4.87;;;;;;;7.77;81.13;95009.69;4996138;28;20210;-67
2022/04/22 00:47:48;;;;;;;11.70;5.97;;;;;;;7.89;79.76;95016.00;4995847;28;20230;-67
2022/04/22 00:50:15;;;;;;;12.00;4.90;;;;;;;8.00;80.12;95007.63;4995531;28;20581;-67
2022/04/22 00:52:42;;;;;;;12.30;5.67;;;;;;;7.98;82.11;94999.97;4994958;28;20217;-66
2022/04/22 00:55:09;;;;;;;11.23;4.83;;;;;;;7.95;83.20;94992.47;4996042;28;20207;-68
2022/04/22 00:57:36;;;;;;;10.07;5.37;;;;;;;8.25;81.51;94998.34;4995113;28;20202;-67
2022/04/22 01:00:06;;;;;;;12.47;5.87;;;;;;;8.48;81.97;94990.00;4995435;28;20212;-67
2022/04/22 01:02:32;;;;;;;13.03;5.73;;;;;;;8.04;82.18;94990.50;4995094;28;20203;-67
2022/04/22 01:10:27;;;;;;;12.97;5.87;;;;;;;8.00;82.32;94978.78;4994558;28;20236;-67
2022/04/22 01:12:54;;;;;;;12.03;5.80;;;;;;;7.94;83.16;94971.66;4994706;28;20199;-67
2022/04/22 01:15:23;;;;;;;16.63;6.33;;;;;;;8.24;82.90;94965.25;4995259;28;20202;-67
2022/04/22 01:17:49;;;;;;;12.83;5.73;;;;;;;8.11;82.53;94975.66;4994973;28;20230;-69
2022/04/22 01:20:17;;;;;;;12.53;5.97;;;;;;;7.97;83.43;94974.72;4994996;28;20211;-69
2022/04/22 01:22:44;;;;;;;12.40;5.57;;;;;;;8.11;82.99;94965.94;4994950;28;20237;-69
2022/04/22 01:25:11;;;;;;;13.77;6.30;;;;;;;7.90;82.45;94962.56;4995525;28;20198;-69
2022/04/22 01:27:38;;;;;;;13.33;6.90;;;;;;;7.96;83.65;94957.38;4994825;28;20225;-69
2022/04/22 01:30:07;;;;;;;13.63;6.40;;;;;;;7.76;84.16;94960.84;4994810;28;20292;-68
2022/04/22 01:32:33;;;;;;;16.83;6.30;;;;;;;7.66;84.43;94959.56;4994464;28;21355;-68
2022/04/22 01:35:00;;;;;;;13.37;6.03;;;;;;;7.83;83.27;94956.47;4995294;28;20245;-69
2022/04/22 01:37:26;;;;;;;12.77;6.33;;;;;;;7.96;82.97;94957.38;4995554;28;20230;-69
2022/04/22 01:39:54;;;;;;;18.27;6.93;;;;;;;8.26;82.05;94955.34;4995126;28;20238;-69
2022/04/22 01:42:21;;;;;;;12.33;5.97;;;;;;;8.03;82.13;94952.16;4994532;28;20206;-69
2022/04/22 01:44:49;;;;;;;12.00;5.73;;;;;;;8.08;81.14;94952.41;4995830;28;20215;-69
2022/04/22 01:47:16;;;;;;;12.20;5.30;;;;;;;7.90;80.61;94949.47;4994819;28;20694;-70
2022/04/22 01:49:42;;;;;;;10.90;5.23;;;;;;;7.83;81.33;94956.47;4995023;28;20230;-69
2022/04/22 01:52:09;;;;;;;11.50;6.00;;;;;;;7.83;81.51;94951.25;4994912;28;20203;-69
2022/04/22 01:54:35;;;;;;;14.07;6.60;;;;;;;7.66;81.07;94943.84;4994127;28;20209;-67
2022/04/22 01:57:04;;;;;;;11.80;5.90;;;;;;;7.78;81.35;94937.88;4994861;28;20195;-67
2022/04/22 01:59:30;;;;;;;17.20;6.60;;;;;;;7.46;82.24;94941.06;4994371;28;20218;-67
2022/04/22 02:01:58;;;;;;;13.27;6.60;;;;;;;7.56;82.79;94944.19;4994433;28;20199;-66
2022/04/22 02:04:24;;;;;;;14.57;6.43;;;;;;;7.47;83.27;94936.63;4993486;28;20206;-67
2022/04/22 02:06:51;;;;;;;16.70;6.90;;;;;;;7.46;81.67;94925.34;4995345;28;20222;-66
2022/04/22 02:09:17;;;;;;;14.63;6.97;;;;;;;7.33;81.74;94932.28;4994281;28;20977;-69
2022/04/22 02:11:44;;;;;;;14.27;6.50;;;;;;;7.21;82.84;94925.13;4993926;28;20214;-69
2022/04/22 02:14:12;;;;;;;13.73;6.67;;;;;;;7.35;82.84;94920.59;4994121;28;20206;-68
2022/04/22 02:16:39;;;;;;;16.00;6.93;;;;;;;7.33;82.35;94921.78;4994697;28;20202;-70
2022/04/22 02:19:05;;;;;;;15.17;6.77;;;;;;;7.46;82.34;94921.94;4993875;28;20233;-68
2022/04/22 02:21:32;;;;;;;14.57;6.70;;;;;;;7.37;83.03;94921.25;4991272;28;20683;-69
2022/04/22 02:23:58;;;;;;;13.17;5.93;;;;;;;7.34;81.30;94916.38;4997337;28;20202;-70
2022/04/22 02:26:25;;;;;;;15.10;6.07;;;;;;;7.44;82.44;94914.22;4997063;28;20233;-69
2022/04/22 02:28:51;;;;;;;17.43;7.23;;;;;;;7.40;82.25;94913.00;4997406;28;20226;-68
2022/04/22 02:31:19;;;;;;;15.57;7.13;;;;;;;7.27;83.56;94917.31;4995338;28;20267;-69
2022/04/22 02:33:45;;;;;;;12.70;5.83;;;;;;;7.22;83.43;94921.50;4996914;28;20220;-70
2022/04/22 02:36:14;;;;;;;15.20;6.90;;;;;;;7.03;79.98;94920.31;4997485;28;20830;-69
2022/04/22 02:38:40;;;;;;;14.93;6.43;;;;;;;7.13;80.89;94915.59;4997203;28;20313;-69
2022/04/22 02:46:37;;;;;;;9.37;4.77;;;;;;;6.88;78.93;94900.44;4996972;28;21071;-69
2022/04/22 02:49:03;;;;;;;11.63;6.03;;;;;;;6.85;79.01;94900.81;4996768;28;20230;-69
2022/04/22 02:51:30;;;;;;;11.33;5.50;;;;;;;6.84;79.22;94904.44;4997081;28;20219;-69
2022/04/22 02:53:56;;;;;;;13.20;5.63;;;;;;;6.85;77.81;94893.78;4996174;28;20202;-68
2022/04/22 02:56:24;;;;;;;8.60;4.87;;;;;;;6.85;76.94;94895.59;4996965;28;20553;-69
2022/04/22 02:58:51;;;;;;;15.67;5.33;;;;;;;6.66;77.34;94893.56;4996968;28;20218;-69
2022/04/22 03:01:17;;;;;;;15.27;6.27;;;;;;;6.50;78.63;94890.38;4996857;28;20217;-69
2022/04/22 03:03:46;;;;;;;12.50;5.73;;;;;;;6.44;78.08;94894.56;4995822;28;20222;-70
2022/04/22 03:06:13;;;;;;;10.73;5.47;;;;;;;6.32;76.78;94892.59;4996926;28;20234;-69
2022/04/22 03:08:39;;;;;;;8.57;4.60;;;;;;;5.89;76.69;94890.03;4997297;28;20718;-69
2022/04/22 03:11:05;;;;;;;15.50;6.20;;;;;;;5.97;80.09;94893.38;4996404;28;20203;-68
2022/04/22 03:13:33;;;;;;;11.93;5.07;;;;;;;6.13;79.69;94883.50;4995795;28;20221;-68
2022/04/22 03:16:00;;;;;;;14.13;6.10;;;;;;;6.28;80.38;94886.91;4997927;28;20213;-69
2022/04/22 03:18:28;;;;;;;13.57;5.43;;;;;;;6.09;80.41;94886.66;4996076;28;20256;-69
2022/04/22 03:20:56;;;;;;;13.20;6.67;;;;;;;6.30;80.28;94882.31;4996212;28;20206;-69
2022/04/22 03:23:23;;;;;;;13.13;6.23;;;;;;;6.18;80.77;94875.91;4995871;28;20207;-68
2022/04/22 03:25:49;;;;;;;12.67;5.70;;;;;;;6.20;79.66;94879.16;4996846;28;20210;-69
2022/04/22 03:28:16;;;;;;;11.93;5.50;;;;;;;6.05;79.90;94881.00;4995950;28;20235;-69
2022/04/22 03:30:43;;;;;;;14.30;5.30;;;;;;;6.17;78.47;94876.94;4993568;28;20202;-68
2022/04/22 03:33:09;;;;;;;15.77;6.47;;;;;;;6.07;79.30;94881.63;4995111;28;20923;-69
2022/04/22 03:35:36;;;;;;;18.00;6.50;;;;;;;5.98;79.79;94878.47;4996386;28;20207;-69
2022/04/22 03:38:04;;;;;;;25.20;6.43;;;;;;;6.21;80.44;94877.34;4996005;28;20230;-68
2022/04/22 03:40:30;;;;;;;18.33;6.10;;;;;;;6.08;79.70;94879.81;4996543;28;20844;-68
2022/04/22 03:42:56;;;;;;;13.87;5.90;;;;;;;6.07;80.20;94883.41;4995508;28;20202;-69
2022/04/22 03:45:23;;;;;;;11.87;5.90;;;;;;;6.08;79.48;94870.19;4996275;28;20223;-68
2022/04/22 03:47:50;;;;;;;12.67;6.03;;;;;;;5.91;77.24;94867.94;4996005;28;20230;-68
2022/04/22 03:50:16;;;;;;;18.73;6.30;;;;;;;5.92;79.89;94871.34;4995929;28;20239;-68
2022/04/22 03:52:43;;;;;;;14.37;6.03;;;;;;;5.99;80.89;94857.38;4995395;28;20206;-68
2022/04/22 03:55:11;;;;;;;22.33;6.73;;;;;;;6.09;78.69;94866.56;4996164;28;20202;-68
2022/04/22 04:00:22;;;;;;;12.30;6.10;;;;;;;5.81;79.31;94864.00;4995836;28;20371;-69
2022/04/22 04:02:48;;;;;;;17.73;6.60;;;;;;;5.79;80.40;94860.72;4995165;28;20198;-68
2022/04/22 04:05:15;;;;;;;18.77;6.70;;;;;;;5.86;81.74;94867.69;4996013;28;20206;-69
2022/04/22 04:07:42;;;;;;;16.80;6.93;;;;;;;5.86;83.01;94854.59;4995410;28;20218;-68
2022/04/22 04:18:22;;;;;;;18.10;7.70;;;;;;;5.89;80.32;94853.44;4995547;28;20279;-68
2022/04/22 04:23:33;;;;;;;15.63;7.27;;;;;;;5.97;80.33;94855.94;4994507;28;20218;-68
2022/04/22 04:26:01;;;;;;;19.40;7.23;;;;;;;6.04;80.28;94854.22;4996280;28;20218;-68
2022/04/22 04:28:27;;;;;;;24.40;7.77;;;;;;;5.96;81.24;94854.31;4996015;28;20873;-69
2022/04/22 04:30:55;;;;;;;17.33;7.53;;;;;;;6.00;82.61;94852.97;4992417;28;20283;-68
2022/04/22 04:33:21;;;;;;;19.77;7.30;;;;;;;5.82;82.87;94850.75;4994401;28;20213;-69
2022/04/22 04:35:48;;;;;;;16.60;7.80;;;;;;;6.00;83.36;94852.97;4996385;28;20207;-69
2022/04/22 04:38:15;;;;;;;15.37;7.23;;;;;;;6.01;84.33;94855.41;4994761;28;20227;-68
2022/04/22 04:40:41;;;;;;;22.73;8.63;;;;;;;6.15;84.72;94852.75;4994810;28;20205;-68
2022/04/22 04:43:09;;;;;;;15.57;7.63;;;;;;;6.28;82.50;94854.72;4995071;28;20294;-69
2022/04/22 04:45:36;;;;;;;16.73;8.17;;;;;;;6.30;80.21;94852.72;4995109;28;20198;-69
2022/04/22 04:48:03;;;;;;;20.33;7.90;;;;;;;6.36;79.76;94851.97;4994537;28;20230;-69
2022/04/22 04:50:30;;;;;;;23.00;7.40;;;;;;;5.92;78.92;94853.06;4995248;28;20789;-68
2022/04/22 04:52:57;;;;;;;19.40;6.83;;;;;;;5.94;78.80;94851.88;4994514;28;20203;-69
2022/04/22 04:55:23;;;;;;;19.17;8.00;;;;;;;6.01;80.34;94846.72;4995121;28;20214;-68
2022/04/22 04:57:50;;;;;;;18.43;7.30;;;;;;;6.17;81.90;94848.16;4995366;28;20579;-69
2022/04/22 05:00:19;;;;;;;19.40;8.33;;;;;;;6.46;82.61;94840.22;4995071;28;20206;-69
2022/04/22 05:02:46;;;;;;;20.13;8.80;;;;;;;6.48;82.48;94846.09;4993908;28;20202;-69
2022/04/22 05:05:12;;;;;;;24.63;8.73;;;;;;;6.65;82.21;94847.47;4994955;28;20210;-68
2022/04/22 05:07:48;;;;;;;25.00;9.53;;;;;;;6.92;82.25;94838.84;4995120;28;20237;-69
2022/04/22 05:10:15;;;;;;;27.10;9.17;;;;;;;6.72;83.39;94853.56;4995186;28;20234;-69
2022/04/22 05:12:42;;;;;;;19.97;8.70;;;;;;;6.83;82.29;94850.44;4994290;28;20213;-69
2022/04/22 05:15:10;;;;;;;20.40;8.17;;;;;;;6.90;81.60;94846.09;4994899;28;20222;-69
2022/04/22 05:17:39;;;;;;;26.03;8.77;;;;;;;7.18;81.26;94849.53;4994319;28;20587;-69
2022/04/22 05:20:07;;;;;;;21.43;8.30;;;;;;;7.20;81.93;94844.94;4994750;28;20225;-67
2022/04/22 05:22:33;;;;;;;21.53;8.77;;;;;;;7.15;81.11;94844.69;4993340;28;20207;-67
2022/04/22 05:25:00;;;;;;;22.40;9.60;;;;;;;7.24;81.95;94839.09;4995247;28;20203;-69
2022/04/22 05:27:26;;;;;;;21.30;10.10;;;;;;;7.28;82.15;94843.78;4994534;28;20218;-68
2022/04/22 05:32:40;;;;;;;25.40;10.87;;;;;;;7.56;83.46;94847.19;4990906;28;20717;-68
2022/04/22 05:35:10;;;;;;;26.13;10.60;;;;;;;7.73;82.46;94851.13;4993999;28;20203;-69
2022/04/22 05:37:43;;;;;;;22.73;9.67;;;;;;;8.08;81.83;94848.28;4994451;28;20252;-69
2022/04/22 05:40:11;;;;;;;28.67;10.70;;;;;;;7.93;82.67;94852.06;4995287;28;20563;-68
2022/04/22 05:42:38;;;;;;;22.67;10.43;;;;;;;7.91;82.98;94849.59;4993692;28;20209;-69
2022/04/22 05:45:06;;;;;;;23.37;10.47;;;;;;;8.06;83.78;94846.88;4993741;28;20234;-69
2022/04/22 05:47:32;;;;;;;26.80;10.30;;;;;;;8.14;83.76;94851.97;4994524;28;20263;-69
2022/04/22 05:49:59;;;;;;;28.43;11.17;;;;;;;8.24;84.08;94844.56;4994604;28;20913;-69
2022/04/22 05:52:27;;;;;;;27.03;11.57;;;;;;;8.47;84.62;94845.84;4993359;28;20211;-68
2022/04/22 05:54:53;;;;;;;28.00;11.50;;;;;;;8.17;86.23;94844.53;4994221;28;20206;-68
2022/04/22 05:57:20;;;;;;;30.00;11.77;;;;;;;8.37;86.00;94844.59;4993448;28;20209;-68
2022/04/22 05:59:48;;;;;;;31.03;12.00;;;;;;;8.44;87.01;94840.16;4993953;28;20714;-69
2022/04/22 06:02:14;;;;;;;30.40;13.37;;;;;;;8.54;87.68;94842.22;4993682;28;20291;-68
2022/04/22 06:04:41;;;;;;;33.27;13.63;;;;;;;8.70;87.26;94844.47;4994068;28;20213;-68
2022/04/22 06:07:07;;;;;;;38.73;12.87;;;;;;;8.63;87.17;94843.66;4993828;28;20222;-69
2022/04/22 06:12:19;;;;;;;32.83;13.03;;;;;;;8.81;86.82;94832.59;4993357;28;20217;-69
2022/04/22 06:14:46;;;;;;;30.37;13.73;;;;;;;8.60;88.19;94836.19;4993712;28;20555;-68
2022/04/22 06:17:13;;;;;;;30.70;13.13;;;;;;;8.49;88.17;94826.25;4994128;28;20207;-68
2022/04/22 06:19:39;;;;;;;31.63;13.90;;;;;;;8.77;89.31;94829.56;4994081;28;20218;-69
2022/04/22 06:22:06;;;;;;;33.23;14.17;;;;;;;8.89;89.00;94830.56;4994702;28;20202;-69
2022/04/22 06:24:33;;;;;;;29.27;12.80;;;;;;;8.86;87.95;94830.97;4993589;28;20199;-67
2022/04/22 06:27:00;;;;;;;29.00;12.17;;;;;;;9.26;85.89;94827.34;4994234;28;20210;-69
2022/04/22 06:29:27;;;;;;;35.07;14.80;;;;;;;9.23;85.59;94833.03;4994346;28;20222;-68
2022/04/22 06:31:54;;;;;;;30.90;12.37;;;;;;;9.43;84.44;94825.91;4990425;28;20209;-67
2022/04/22 06:34:22;;;;;;;32.13;13.60;;;;;;;9.39;87.26;94824.72;4993362;28;20202;-66
2022/04/22 06:36:49;;;;;;;32.13;13.67;;;;;;;9.42;86.27;94832.19;4993327;28;20207;-66
2022/04/22 06:39:16;;;;;;;35.67;13.37;;;;;;;9.42;86.71;94826.91;4993300;28;20230;-68
2022/04/22 06:47:14;;;;;;;30.60;13.40;;;;;;;9.76;85.92;94822.22;4993305;28;20788;-67
2022/04/22 06:49:41;;;;;;;31.20;12.77;;;;;;;9.43;88.00;94821.47;4994803;28;20223;-66
2022/04/22 06:52:09;;;;;;;31.20;13.40;;;;;;;9.89;86.17;94825.63;4993653;28;20209;-66
2022/04/22 06:54:37;;;;;;;32.83;13.47;;;;;;;9.75;82.77;94818.00;4992843;28;20211;-66
2022/04/22 06:57:04;;;;;;;30.30;11.87;;;;;;;9.56;84.06;94818.00;4992953;28;20202;-66
2022/04/22 06:59:32;;;;;;;27.97;12.17;;;;;;;10.05;84.97;94814.66;4993627;28;21014;-66
2022/04/22 07:01:59;;;;;;;36.27;13.10;;;;;;;9.89;83.43;94824.81;4993673;28;20206;-66
2022/04/22 07:04:26;;;;;;;31.43;12.03;;;;;;;10.15;84.88;94820.31;4991757;28;20207;-66
2022/04/22 07:06:53;;;;;;;28.37;12.13;;;;;;;10.10;82.11;94809.59;4993632;28;20227;-65
2022/04/22 07:09:20;;;;;;;30.90;13.83;;;;;;;10.18;83.08;94804.09;4997090;28;20238;-66
2022/04/22 07:11:51;;;;;;;26.43;11.40;;;;;;;10.37;82.21;94809.28;4997650;28;20746;-67
2022/04/22 07:14:18;;;;;;;24.87;10.80;;;;;;;10.28;81.64;94801.81;4996335;28;20265;-69
2022/04/22 07:16:48;;;;;;;23.90;11.43;;;;;;;10.72;81.07;94797.34;4997182;28;20203;-69
2022/04/22 07:19:15;;;;;;;28.37;11.87;;;;;;;10.78;81.41;94795.66;4996974;28;20594;-68
2022/04/22 07:21:42;;;;;;;30.67;13.57;;;;;;;10.49;79.55;94798.91;4998449;28;20205;-68
2022/04/22 07:24:09;;;;;;;32.80;11.43;;;;;;;10.40;81.58;94797.53;4996044;28;20202;-68
2022/04/22 07:26:38;;;;;;;27.07;11.80;;;;;;;10.76;80.29;94800.38;4997482;28;21150;-68
2022/04/22 07:29:07;;;;;;;25.30;12.07;;;;;;;10.64;78.33;94792.31;4996710;28;20249;-68
2022/04/22 07:31:34;;;;;;;27.67;11.60;;;;;;;10.80;78.97;94801.56;4994056;28;20202;-68
2022/04/22 07:34:02;;;;;;;27.97;11.50;;;;;;;10.91;80.30;94795.56;4996691;28;20206;-69
2022/04/22 07:36:29;;;;;;;33.40;12.03;;;;;;;10.81;79.62;94798.69;4996768;28;20226;-68
2022/04/22 07:38:55;;;;;;;27.47;12.33;;;;;;;10.92;78.99;94794.56;4996441;28;20225;-68
2022/04/22 07:41:26;;;;;;;20.90;9.00;;;;;;;10.93;79.26;94799.63;4996696;28;20213;-68
2022/04/22 07:46:58;;;;;;;24.33;10.93;;;;;;;11.30;76.42;94791.63;4996617;28;20267;-68
2022/04/22 07:49:28;;;;;;;27.47;12.83;;;;;;;11.70;78.56;94793.72;4996481;28;20240;-68
2022/04/22 07:51:54;;;;;;;25.03;11.63;;;;;;;11.60;74.77;94790.75;4996266;28;20675;-66
2022/04/22 07:54:22;;;;;;;22.30;10.87;;;;;;;11.64;77.53;94789.28;4996270;28;21301;-66
2022/04/22 07:56:49;;;;;;;22.43;10.50;;;;;;;11.84;77.46;94789.13;4996532;28;20205;-66
2022/04/22 07:59:15;;;;;;;24.57;11.90;;;;;;;11.75;75.46;94791.22;4995970;28;20219;-67
2022/04/22 08:01:42;;;;;;;23.67;10.57;;;;;;;11.86;78.78;94793.16;4997197;28;20207;-66
2022/04/22 08:04:09;;;;;;;26.37;11.23;;;;;;;12.11;76.00;94782.50;4996750;28;20633;-70
2022/04/22 08:06:38;;;;;;;28.43;10.63;;;;;;;12.42;74.74;94783.94;4996510;28;20264;-69
2022/04/22 08:09:04;;;;;;;25.40;10.90;;;;;;;12.43;76.79;94782.09;4995232;28;20754;-66
2022/04/22 08:11:31;;;;;;;27.13;11.77;;;;;;;12.19;76.29;94780.34;4996666;28;20229;-67
2022/04/22 08:13:58;;;;;;;22.67;10.90;;;;;;;12.36;72.86;94784.81;4995792;28;20230;-67
2022/04/22 08:16:24;;;;;;;23.13;10.83;;;;;;;12.31;72.18;94781.25;4996166;28;20294;-66
2022/04/22 08:18:51;;;;;;;26.30;11.53;;;;;;;12.22;72.38;94780.72;4995174;28;20233;-67
2022/04/22 08:21:18;;;;;;;22.70;11.13;;;;;;;12.26;72.21;94776.63;4996830;28;20211;-67
2022/04/22 08:23:48;;;;;;;25.50;11.40;;;;;;;12.53;73.95;94777.88;4994992;28;20227;-66
2022/04/22 08:26:15;;;;;;;20.23;9.63;;;;;;;12.25;73.87;94782.13;4996169;28;20564;-67
2022/04/22 08:28:41;;;;;;;25.93;11.53;;;;;;;12.63;72.36;94772.09;4995954;28;20226;-66
2022/04/22 08:31:08;;;;;;;21.60;10.53;;;;;;;12.39;74.52;94773.00;4993690;28;20213;-67
2022/04/22 08:33:34;;;;;;;23.83;10.83;;;;;;;12.72;71.88;94768.88;4995569;28;20210;-66
2022/04/22 08:36:01;;;;;;;23.27;11.43;;;;;;;13.22;73.47;94765.69;4996338;28;20205;-67
2022/04/22 08:38:27;;;;;;;22.47;10.07;;;;;;;13.36;70.70;94755.72;4995927;28;20211;-67
2022/04/22 08:40:56;;;;;;;25.20;11.43;;;;;;;13.53;72.11;94762.72;4995787;28;20198;-66
2022/04/22 08:43:24;;;;;;;19.80;9.17;;;;;;;12.70;70.59;94759.56;4995443;28;20555;-66
2022/04/22 08:45:50;;;;;;;22.93;10.80;;;;;;;13.06;71.20;94758.44;4996393;28;20207;-67
2022/04/22 08:51:02;;;;;;;19.77;10.20;;;;;;;13.56;72.65;94755.13;4995866;28;20213;-66
2022/04/22 08:53:30;;;;;;;23.17;10.77;;;;;;;13.68;71.76;94755.13;4994516;28;20206;-67
2022/04/22 08:56:02;;;;;;;25.50;11.00;;;;;;;13.71;66.34;94752.81;4995188;28;20206;-67
2022/04/22 08:58:29;;;;;;;20.50;10.23;;;;;;;13.41;68.20;94744.19;4995396;28;20230;-66
2022/04/22 09:00:57;;;;;;;21.23;10.40;;;;;;;13.72;69.15;94753.63;4994969;28;20571;-67
2022/04/22 09:03:26;;;;;;;21.85;10.32;;;;;;;13.97;69.55;94744.38;4993920;28;20202;-67
2022/04/22 09:05:53;;;;;;;19.87;9.90;;;;;;;14.01;66.17;94745.50;4995351;28;20222;-66
2022/04/22 09:08:20;;;;;;;21.05;10.63;;;;;;;14.36;66.97;94746.28;4994520;28;20230;-67
2022/04/22 09:10:52;;;;;;;23.52;11.48;;;;;;;14.74;66.20;94734.81;4994658;28;20476;-67
2022/04/22 09:13:26;;;;;;;19.52;10.55;;;;;;;14.80;63.14;94733.88;4994644;28;20464;-67
2022/04/22 09:15:54;;;;;;;18.80;9.07;;;;;;;14.36;66.93;94735.69;4995352;28;20374;-66
2022/04/22 09:18:24;;;;;;;18.53;10.17;;;;;;;14.81;65.77;94730.16;4994479;28;20249;-67
2022/04/22 09:20:50;;;;;;;18.02;9.63;;;;;;;14.12;65.06;94740.22;4994386;28;20677;-66
2022/04/22 09:23:31;;;;;;;19.48;9.98;;;;;;;14.86;64.86;94735.53;4993209;28;20218;-67
2022/04/22 09:25:58;;;;;;;19.27;9.68;;;;;;;14.50;63.34;94739.63;4995259;28;20202;-67
2022/04/22 09:28:26;;;;;;;18.00;9.60;;;;;;;14.96;64.52;94737.59;4994670;28;20230;-68
2022/04/22 09:31:00;;;;;;;17.95;9.52;;;;;;;15.15;65.16;94731.81;4991029;28;20441;-67
2022/04/22 09:33:33;;;;;;;18.83;9.70;;;;;;;15.15;64.32;94734.47;4994146;28;20301;-67
2022/04/22 09:44:25;;;;;;;19.27;9.95;;;;;;;15.62;63.58;94727.81;4993654;28;20291;-66
2022/04/22 09:47:10;;;;;;;20.17;10.02;;;;;;;15.74;59.59;94718.66;4994492;28;20543;-67
2022/04/22 09:49:43;;;;;;;19.40;9.82;;;;;;;15.86;59.54;94714.88;4993914;28;20754;-66
2022/04/22 09:52:10;;;;;;;18.98;9.05;;;;;;;15.68;62.23;94722.31;4993852;28;20464;-67
2022/04/22 09:54:37;;;;;;;23.63;10.07;;;;;;;15.60;63.72;94719.25;4994346;28;20210;-67
2022/04/22 09:57:05;;;;;;;16.92;8.60;;;;;;;15.31;60.16;94713.28;4994857;28;20572;-67
2022/04/22 09:59:33;;;;;;;16.38;9.50;;;;;;;15.72;60.68;94731.41;4994471;28;20222;-67
2022/04/22 10:02:01;;;;;;;16.25;9.02;;;;;;;15.86;63.23;94712.22;4994424;28;20954;-67
2022/04/22 10:04:28;;;;;;;19.42;9.35;;;;;;;16.58;60.18;94721.63;4994082;28;20335;-67
2022/04/22 10:06:56;;;;;;;14.75;8.43;;;;;;;16.41;57.89;94718.25;4994469;28;20309;-67
2022/04/22 10:09:23;;;;;;;15.32;8.93;;;;;;;16.42;57.62;94727.00;4994465;28;20352;-67
2022/04/22 10:11:54;;;;;;;15.40;8.90;;;;;;;16.63;56.23;94713.69;4994493;28;20207;-68
2022/04/22 10:14:38;;;;;;;17.80;9.05;;;;;;;16.88;54.50;94717.41;4993723;28;20217;-68
2022/04/22 10:17:06;;;;;;;16.00;8.95;;;;;;;16.38;55.86;94724.06;4995028;28;20210;-68
2022/04/22 10:19:34;;;;;;;16.83;8.85;;;;;;;16.78;57.82;94711.97;4995010;28;20222;-68
2022/04/22 10:22:01;;;;;;;14.80;8.50;;;;;;;17.23;58.52;94721.19;4994060;28;20235;-68
2022/04/22 10:24:31;;;;;;;17.35;8.82;;;;;;;17.72;55.58;94707.47;4993801;28;21238;-68
2022/04/22 10:26:58;;;;;;;15.52;8.52;;;;;;;17.84;54.63;94709.94;4995299;28;20210;-69
2022/04/22 10:29:26;;;;;;;15.07;8.45;;;;;;;17.29;55.71;94712.22;4994296;28;20902;-68
2022/04/22 10:31:54;;;;;;;15.77;8.50;;;;;;;17.55;53.64;94708.66;4990584;28;20206;-68
2022/04/22 10:34:20;;;;;;;14.85;8.80;;;;;;;17.35;53.21;94708.53;4993913;28;20203;-68
2022/04/22 10:36:55;;;;;;;17.05;9.32;;;;;;;17.94;54.00;94702.00;4994148;28;20210;-67
2022/04/22 10:39:35;;;;;;;18.33;8.75;;;;;;;17.67;54.30;94703.16;4993662;28;20226;-68
2022/04/22 10:42:02;;;;;;;18.02;9.68;;;;;;;17.23;56.51;94704.41;4994208;28;20209;-69
2022/04/22 10:47:14;;;;;;;16.02;8.98;;;;;;;17.67;53.73;94701.31;4997356;28;20255;-69
2022/04/22 10:49:42;;;;;;;17.45;9.65;;;;;;;18.08;53.43;94695.94;4997081;28;20222;-68
2022/04/22 10:52:14;;;;;;;15.63;9.05;;;;;;;18.44;52.12;94703.88;4997369;28;20203;-69
2022/04/22 10:55:08;;;;;;;16.13;9.00;;;;;;;18.46;56.16;94695.59;4996913;28;20206;-67
2022/04/22 10:57:35;;;;;;;20.77;9.75;;;;;;;17.87;54.73;94704.06;4996483;28;20203;-68
2022/04/22 11:00:27;;;;;;;15.23;8.85;;;;;;;18.16;56.28;94699.97;4996946;28;20275;-69
2022/04/22 11:03:03;;;;;;;15.48;8.98;;;;;;;18.78;52.92;94696.22;4996048;28;20209;-70
2022/04/22 11:05:37;;;;;;;14.77;8.27;;;;;;;18.44;52.38;94693.19;4997236;28;20198;-69
2022/04/22 11:08:06;;;;;;;17.50;8.90;;;;;;;18.86;51.71;94699.16;4997159;28;20229;-69
2022/04/22 11:10:58;;;;;;;14.70;8.48;;;;;;;19.09;49.24;94696.00;4996904;28;20218;-69
2022/04/22 11:13:29;;;;;;;21.85;9.82;;;;;;;19.44;50.00;94688.03;4995049;28;20206;-66
2022/04/22 11:15:57;;;;;;;16.15;9.00;;;;;;;19.67;48.49;94696.28;4996798;28;20210;-66
2022/04/22 11:18:25;;;;;;;13.82;7.97;;;;;;;18.54;49.40;94692.41;4995327;28;20230;-66
2022/04/22 11:20:54;;;;;;;14.00;8.77;;;;;;;18.74;48.15;94682.59;4997494;28;20203;-67
2022/04/22 11:23:21;;;;;;;20.17;9.48;;;;;;;18.68;52.80;94693.53;4996542;28;20210;-69
2022/04/22 11:25:48;;;;;;;23.38;8.32;;;;;;;18.99;50.27;94685.28;4997743;28;20218;-69
2022/04/22 11:28:14;;;;;;;16.27;8.98;;;;;;;18.96;48.13;94685.81;4997571;28;20231;-69
2022/04/22 11:30:41;;;;;;;15.93;8.93;;;;;;;19.03;50.26;94691.72;4993795;28;20280;-67
2022/04/22 11:33:13;;;;;;;20.38;9.40;;;;;;;19.09;50.93;94688.81;4996540;28;20229;-66
2022/04/22 11:35:41;;;;;;;15.43;8.38;;;;;;;19.08;48.48;94689.06;4998008;28;20279;-69
2022/04/22 11:38:08;;;;;;;14.32;7.85;;;;;;;18.26;54.20;94697.38;4997987;28;20236;-66
2022/04/22 11:40:37;;;;;;;16.88;7.97;;;;;;;18.54;50.17;94687.06;4996595;28;20247;-69
2022/04/22 11:43:07;;;;;;;14.50;8.02;;;;;;;19.27;47.48;94682.94;4996091;28;20203;-69
2022/04/22 11:45:36;;;;;;;13.77;7.93;;;;;;;18.99;53.59;94682.63;4997521;28;20216;-69
2022/04/22 11:48:07;;;;;;;13.82;7.68;;;;;;;19.12;46.35;94688.28;4996861;28;20698;-69
2022/04/22 11:50:38;;;;;;;15.98;8.00;;;;;;;19.79;50.78;94686.09;4996678;28;20774;-69
2022/04/22 11:53:13;;;;;;;19.25;7.88;;;;;;;19.13;50.58;94687.22;4996064;28;20604;-69
2022/04/22 11:55:42;;;;;;;12.00;7.32;;;;;;;19.56;46.20;94677.84;4996630;28;20209;-68
2022/04/22 11:58:09;;;;;;;14.15;7.53;;;;;;;19.42;46.01;94679.47;4996768;28;20218;-69
2022/04/22 12:06:07;;;;;;;13.38;7.25;;;;;;;20.04;46.85;94684.19;4995987;28;20276;-66
2022/04/22 12:08:35;;;;;;;15.15;7.53;;;;;;;20.62;46.24;94678.88;4996918;28;20226;-67
2022/04/22 12:11:02;;;;;;;13.73;7.47;;;;;;;20.21;46.09;94684.66;4996642;28;20203;-67
2022/04/22 12:13:28;;;;;;;11.23;7.25;;;;;;;20.21;46.78;94687.34;4994473;28;20203;-67
2022/04/22 12:15:55;;;;;;;13.35;7.82;;;;;;;19.77;43.95;94681.03;4995733;28;20206;-67
2022/04/22 12:18:27;;;;;;;12.80;7.00;;;;;;;20.11;45.14;94679.38;4996043;28;20239;-67
2022/04/22 12:20:53;;;;;;;18.48;7.78;;;;;;;20.44;47.87;94679.50;4996309;28;20199;-66
2022/04/22 12:23:21;;;;;;;12.52;7.20;;;;;;;20.74;42.74;94682.03;4995318;28;20214;-67
2022/04/22 12:25:55;;;;;;;12.25;7.75;;;;;;;20.88;44.98;94670.44;4995799;28;20294;-67
2022/04/22 12:28:21;;;;;;;12.82;6.90;;;;;;;20.71;46.02;94671.06;4996025;28;20226;-67
2022/04/22 12:30:48;;;;;;;13.82;7.25;;;;;;;19.91;44.63;94671.41;4992200;28;20229;-66